createdAt,value
2022-08-17T00:00:43.601Z,26.04
2022-08-17T00:03:17.569Z,26.04
2022-08-17T00:05:49.603Z,25.92
2022-08-17T00:08:21.684Z,25.98
2022-08-17T00:10:52.681Z,26.00
2022-08-17T00:13:27.532Z,25.86
2022-08-17T00:16:01.904Z,25.78
2022-08-17T00:19:02.079Z,25.78
2022-08-17T00:21:23.811Z,25.63
2022-08-17T00:23:55.279Z,25.74
2022-08-17T00:26:43.732Z,25.80
2022-08-17T00:29:19.374Z,25.76
2022-08-17T00:31:48.965Z,25.80
2022-08-17T00:34:18.006Z,25.77
2022-08-17T00:36:46.403Z,25.75
2022-08-17T00:39:14.870Z,25.69
2022-08-17T00:41:43.375Z,25.69
2022-08-17T00:44:12.833Z,25.71
2022-08-17T00:46:45.066Z,25.66
2022-08-17T00:49:15.628Z,25.60
2022-08-17T00:51:51.019Z,25.59
2022-08-17T00:54:26.475Z,25.57
2022-08-17T00:56:59.979Z,25.57
2022-08-17T00:59:32.963Z,25.56
2022-08-17T01:02:03.787Z,25.48
2022-08-17T01:04:33.849Z,25.49
2022-08-17T01:07:04.646Z,25.42
2022-08-17T01:09:34.135Z,25.39
2022-08-17T01:12:02.699Z,25.36
2022-08-17T01:14:31.189Z,25.32
2022-08-17T01:17:00.382Z,25.32
2022-08-17T01:19:36.462Z,25.27
2022-08-17T01:22:10.260Z,25.27
2022-08-17T01:24:43.457Z,25.24
2022-08-17T01:27:14.484Z,25.23
2022-08-17T01:29:46.561Z,24.94
2022-08-17T01:32:15.308Z,24.98
2022-08-17T01:34:50.556Z,24.93
2022-08-17T01:37:21.723Z,24.90
2022-08-17T01:39:59.093Z,24.98
2022-08-17T01:42:33.336Z,25.02
2022-08-17T01:45:09.757Z,25.00
2022-08-17T01:47:38.279Z,25.02
2022-08-17T01:50:10.864Z,24.97
2022-08-17T01:52:40.508Z,24.96
2022-08-17T01:55:11.651Z,24.89
2022-08-17T01:57:40.072Z,24.94
2022-08-17T02:00:11.308Z,24.87
2022-08-17T02:02:40.293Z,24.66
2022-08-17T02:05:10.137Z,24.71
2022-08-17T02:07:47.969Z,24.77
2022-08-17T02:10:32.911Z,23.91
2022-08-17T02:13:03.205Z,24.20
2022-08-17T02:15:32.067Z,24.30
2022-08-17T02:18:00.750Z,24.41
2022-08-17T02:20:42.331Z,24.46
2022-08-17T02:23:14.386Z,24.57
2022-08-17T02:25:48.777Z,24.55
2022-08-17T02:28:17.959Z,24.58
2022-08-17T02:31:00.335Z,24.59
2022-08-17T02:33:42.475Z,24.54
2022-08-17T02:36:13.995Z,24.56
2022-08-17T02:38:43.560Z,24.48
2022-08-17T02:41:13.775Z,24.48
2022-08-17T02:43:42.476Z,24.34
2022-08-17T02:46:12.754Z,24.34
2022-08-17T02:48:41.142Z,24.39
2022-08-17T02:51:09.656Z,24.36
2022-08-17T02:53:38.116Z,24.32
2022-08-17T02:56:06.785Z,24.27
2022-08-17T02:58:36.561Z,24.24
2022-08-17T03:01:06.349Z,24.21
2022-08-17T03:03:35.715Z,24.16
2022-08-17T03:06:05.023Z,24.13
2022-08-17T03:08:33.395Z,24.12
2022-08-17T03:11:01.858Z,24.11
2022-08-17T03:13:30.893Z,24.09
2022-08-17T03:16:00.673Z,24.04
2022-08-17T03:18:29.187Z,24.05
2022-08-17T03:21:01.261Z,24.02
2022-08-17T03:23:30.408Z,24.01
2022-08-17T03:26:00.098Z,24.00
2022-08-17T03:28:29.326Z,23.98
2022-08-17T03:30:57.693Z,23.98
2022-08-17T03:33:27.620Z,23.95
2022-08-17T03:35:56.143Z,23.95
2022-08-17T03:38:24.842Z,23.92
2022-08-17T03:40:59.428Z,23.86
2022-08-17T03:43:31.495Z,23.88
2022-08-17T03:46:34.114Z,23.86
2022-08-17T03:49:25.147Z,23.80
2022-08-17T03:52:12.144Z,23.78
2022-08-17T03:54:57.985Z,23.74
2022-08-17T03:57:26.890Z,23.70
2022-08-17T03:59:56.330Z,23.67
2022-08-17T04:02:29.407Z,23.64
2022-08-17T04:04:59.521Z,23.60
2022-08-17T04:07:30.604Z,23.58
2022-08-17T04:09:59.809Z,23.56
2022-08-17T04:12:30.937Z,23.53
2022-08-17T04:14:59.672Z,23.52
2022-08-17T04:17:30.841Z,23.50
2022-08-17T04:20:00.528Z,23.47
2022-08-17T04:22:30.558Z,23.47
2022-08-17T04:25:05.565Z,23.40
2022-08-17T04:27:34.015Z,23.40
2022-08-17T04:30:02.580Z,23.37
2022-08-17T04:33:04.896Z,23.37
2022-08-17T04:35:24.687Z,23.38
2022-08-17T04:37:53.815Z,23.39
2022-08-17T04:40:42.064Z,23.37
2022-08-17T04:43:15.737Z,23.39
2022-08-17T04:45:56.208Z,23.38
2022-08-17T04:48:35.625Z,23.38
2022-08-17T04:51:10.768Z,23.38
2022-08-17T04:53:40.827Z,23.39
2022-08-17T04:56:16.149Z,23.39
2022-08-17T04:58:47.905Z,23.42
2022-08-17T05:01:23.902Z,23.44
2022-08-17T05:03:53.896Z,23.47
2022-08-17T05:06:23.932Z,23.54
2022-08-17T05:08:52.377Z,23.51
2022-08-17T05:11:21.419Z,23.52
2022-08-17T05:13:50.804Z,23.48
2022-08-17T05:16:20.418Z,23.38
2022-08-17T05:18:49.372Z,23.41
2022-08-17T05:21:18.324Z,23.43
2022-08-17T05:23:53.237Z,23.50
2022-08-17T05:26:27.404Z,23.52
2022-08-17T05:29:02.515Z,23.55
2022-08-17T05:31:32.088Z,23.55
2022-08-17T05:34:00.478Z,23.54
2022-08-17T05:36:41.933Z,23.53
2022-08-17T05:39:15.817Z,23.55
2022-08-17T05:41:47.781Z,23.57
2022-08-17T05:44:16.615Z,23.56
2022-08-17T05:46:51.259Z,23.57
2022-08-17T05:49:27.221Z,23.56
2022-08-17T05:52:23.989Z,23.58
2022-08-17T05:55:17.317Z,23.64
2022-08-17T05:58:03.688Z,23.61
2022-08-17T06:00:44.177Z,23.65
2022-08-17T06:03:33.267Z,23.73
2022-08-17T06:06:18.205Z,23.43
2022-08-17T06:08:54.332Z,22.17
2022-08-17T06:11:35.339Z,22.40
2022-08-17T06:14:32.444Z,23.08
2022-08-17T06:17:05.608Z,22.96
2022-08-17T06:19:42.214Z,23.36
2022-08-17T06:22:16.838Z,22.78
2022-08-17T06:24:51.951Z,22.61
2022-08-17T06:27:32.309Z,23.02
2022-08-17T06:30:09.438Z,22.87
2022-08-17T06:32:39.203Z,23.12
2022-08-17T06:35:10.543Z,23.34
2022-08-17T06:38:37.091Z,23.25
2022-08-17T06:41:19.408Z,23.19
2022-08-17T06:44:09.974Z,23.24
2022-08-17T06:46:42.520Z,23.26
2022-08-17T06:49:21.901Z,23.48
2022-08-17T06:51:55.551Z,23.27
2022-08-17T06:54:35.205Z,23.32
2022-08-17T06:57:14.624Z,23.63
2022-08-17T06:59:56.189Z,23.75
2022-08-17T07:02:51.470Z,24.04
2022-08-17T07:05:26.022Z,23.97
2022-08-17T07:08:02.701Z,24.11
2022-08-17T07:10:43.769Z,24.17
2022-08-17T07:13:38.670Z,23.80
2022-08-17T07:16:20.616Z,24.22
2022-08-17T07:18:53.004Z,24.27
2022-08-17T07:21:46.071Z,23.93
2022-08-17T07:24:33.122Z,24.16
2022-08-17T07:27:23.602Z,23.92
2022-08-17T07:29:58.172Z,23.84
2022-08-17T07:32:31.877Z,23.80
2022-08-17T07:35:19.986Z,24.19
2022-08-17T07:37:53.234Z,24.46
2022-08-17T07:40:36.532Z,24.07
2022-08-17T07:43:19.914Z,24.14
2022-08-17T07:46:34.439Z,24.32
2022-08-17T07:49:21.886Z,24.09
2022-08-17T07:52:47.738Z,24.41
2022-08-17T07:54:50.218Z,24.25
2022-08-17T07:57:36.413Z,24.25
2022-08-17T08:00:26.703Z,24.12
2022-08-17T08:03:13.615Z,24.33
2022-08-17T08:05:54.992Z,24.99
2022-08-17T08:08:29.558Z,25.27
2022-08-17T08:11:29.314Z,24.99
2022-08-17T08:14:17.674Z,25.22
2022-08-17T08:17:00.204Z,25.00
2022-08-17T08:19:30.175Z,25.23
2022-08-17T08:22:07.727Z,25.15
2022-08-17T08:24:56.329Z,24.90
2022-08-17T08:27:41.327Z,24.64
2022-08-17T08:30:14.754Z,24.48
2022-08-17T08:33:18.207Z,24.82
2022-08-17T08:35:54.458Z,24.93
2022-08-17T08:38:42.661Z,26.14
2022-08-17T08:41:35.644Z,25.92
2022-08-17T08:44:59.473Z,25.35
2022-08-17T08:47:38.784Z,25.46
2022-08-17T08:50:37.184Z,25.10
2022-08-17T08:53:21.359Z,25.24
2022-08-17T08:55:57.028Z,25.09
2022-08-17T08:58:41.637Z,24.86
2022-08-17T09:01:22.054Z,24.39
2022-08-17T09:04:24.118Z,24.82
2022-08-17T09:07:12.198Z,24.28
2022-08-17T09:09:59.329Z,24.63
2022-08-17T09:12:42.077Z,24.88
2022-08-17T09:15:17.993Z,24.56
2022-08-17T09:18:28.421Z,24.66
2022-08-17T09:20:51.080Z,24.48
2022-08-17T09:23:32.847Z,24.59
2022-08-17T09:26:11.554Z,24.68
2022-08-17T09:28:49.495Z,24.76
2022-08-17T09:31:24.221Z,25.02
2022-08-17T09:33:53.845Z,24.38
2022-08-17T09:36:31.174Z,23.88
2022-08-17T09:39:07.115Z,24.20
2022-08-17T09:41:48.666Z,24.50
2022-08-17T09:44:29.093Z,24.87
2022-08-17T09:47:06.706Z,24.83
2022-08-17T09:49:44.093Z,24.52
2022-08-17T09:52:19.670Z,24.21
2022-08-17T09:54:51.901Z,24.23
2022-08-17T09:57:37.253Z,24.13
2022-08-17T10:00:21.435Z,24.02
2022-08-17T10:03:09.719Z,24.20
2022-08-17T10:05:46.455Z,24.08
2022-08-17T10:08:29.461Z,24.17
2022-08-17T10:11:18.540Z,24.36
2022-08-17T10:13:58.759Z,23.87
2022-08-17T10:16:41.157Z,23.67
2022-08-17T10:19:19.397Z,23.69
2022-08-17T10:22:32.372Z,23.88
2022-08-17T10:25:22.763Z,23.82
2022-08-17T10:28:00.166Z,23.81
2022-08-17T10:30:34.414Z,23.82
2022-08-17T10:33:14.482Z,23.84
2022-08-17T10:35:52.664Z,23.58
2022-08-17T10:38:42.292Z,23.82
2022-08-17T10:41:29.368Z,23.93
2022-08-17T10:44:38.729Z,23.73
2022-08-17T10:47:10.579Z,24.28
2022-08-17T10:49:45.736Z,24.13
2022-08-17T10:52:50.576Z,23.75
2022-08-17T10:55:21.335Z,23.69
2022-08-17T10:57:54.880Z,23.71
2022-08-17T11:00:58.536Z,23.45
2022-08-17T11:03:27.657Z,23.27
2022-08-17T11:06:12.767Z,23.12
2022-08-17T11:09:08.074Z,23.38
2022-08-17T11:11:57.495Z,23.84
2022-08-17T11:15:08.426Z,23.82
2022-08-17T11:18:33.890Z,23.31
2022-08-17T11:21:37.691Z,23.09
2022-08-17T11:24:20.359Z,23.09
2022-08-17T11:27:12.235Z,22.88
2022-08-17T11:29:59.437Z,23.48
2022-08-17T11:32:47.834Z,23.73
2022-08-17T11:35:38.730Z,23.85
2022-08-17T11:38:19.635Z,23.50
2022-08-17T11:41:11.993Z,23.80
2022-08-17T11:44:08.273Z,24.15
2022-08-17T11:47:20.548Z,24.27
2022-08-17T11:50:36.255Z,24.42
2022-08-17T11:53:05.023Z,24.92
2022-08-17T11:56:07.394Z,24.34
2022-08-17T11:58:41.992Z,24.89
2022-08-17T12:01:16.035Z,24.37
2022-08-17T12:03:55.492Z,24.62
2022-08-17T12:06:47.922Z,25.15
2022-08-17T12:09:24.636Z,25.54
2022-08-17T12:12:13.000Z,24.98
2022-08-17T12:17:52.275Z,24.88
2022-08-17T12:20:28.017Z,25.10
2022-08-17T12:23:10.330Z,25.45
2022-08-17T12:25:44.548Z,25.30
2022-08-17T12:28:25.781Z,25.11
2022-08-17T12:30:54.997Z,25.14
2022-08-17T12:33:28.864Z,24.77
2022-08-17T12:36:02.876Z,25.24
2022-08-17T12:38:35.101Z,25.36
2022-08-17T12:41:21.824Z,25.38
2022-08-17T12:44:01.742Z,25.68
2022-08-17T12:46:34.930Z,25.14
2022-08-17T12:49:27.534Z,24.87
2022-08-17T12:52:06.297Z,25.46
2022-08-17T12:54:50.834Z,25.36
2022-08-17T12:57:24.537Z,25.26
2022-08-17T12:59:59.884Z,25.43
2022-08-17T13:02:40.244Z,25.83
2022-08-17T13:05:19.165Z,25.89
2022-08-17T13:07:47.864Z,25.96
2022-08-17T13:10:28.649Z,25.83
2022-08-17T13:13:04.912Z,25.55
2022-08-17T13:15:43.202Z,25.64
2022-08-17T13:18:41.523Z,25.05
2022-08-17T13:21:26.941Z,25.29
2022-08-17T13:24:01.616Z,25.54
2022-08-17T13:26:34.441Z,25.57
2022-08-17T13:29:06.313Z,25.56
2022-08-17T13:31:51.774Z,25.93
2022-08-17T13:34:48.246Z,25.70
2022-08-17T13:37:33.557Z,26.16
2022-08-17T13:40:20.690Z,26.52
2022-08-17T13:42:53.971Z,26.25
2022-08-17T13:46:08.231Z,26.34
2022-08-17T13:48:38.451Z,25.55
2022-08-17T13:51:28.255Z,25.51
2022-08-17T13:54:26.557Z,25.02
2022-08-17T13:57:04.577Z,24.91
2022-08-17T13:59:54.585Z,24.84
2022-08-17T14:02:28.640Z,24.38
2022-08-17T14:05:00.582Z,24.76
2022-08-17T14:07:34.793Z,24.89
2022-08-17T14:10:10.383Z,25.12
2022-08-17T14:12:41.630Z,25.59
2022-08-17T14:15:12.894Z,25.98
2022-08-17T14:17:41.275Z,25.27
2022-08-17T14:20:14.393Z,25.22
2022-08-17T14:22:49.572Z,25.44
2022-08-17T14:25:22.638Z,25.03
2022-08-17T14:27:54.084Z,25.20
2022-08-17T14:30:28.953Z,25.47
2022-08-17T14:32:59.872Z,25.09
2022-08-17T14:35:30.103Z,25.11
2022-08-17T14:37:59.122Z,25.15
2022-08-17T14:40:28.130Z,25.42
2022-08-17T14:42:58.508Z,25.78
2022-08-17T14:45:32.533Z,25.72
2022-08-17T14:48:05.803Z,25.16
2022-08-17T14:50:38.409Z,25.70
2022-08-17T14:53:08.005Z,25.57
2022-08-17T14:55:39.959Z,25.51
2022-08-17T14:58:09.093Z,25.11
2022-08-17T15:00:38.580Z,25.47
2022-08-17T15:03:07.374Z,25.98
2022-08-17T15:05:39.383Z,26.06
2022-08-17T15:08:08.618Z,25.89
2022-08-17T15:10:37.408Z,25.94
2022-08-17T15:13:06.026Z,26.13
2022-08-17T15:15:34.608Z,26.16
2022-08-17T15:18:03.463Z,26.02
2022-08-17T15:20:32.118Z,25.82
2022-08-17T15:23:01.831Z,26.08
2022-08-17T15:25:32.966Z,25.64
2022-08-17T15:28:03.125Z,25.35
2022-08-17T15:30:32.660Z,25.21
2022-08-17T15:33:02.791Z,25.23
2022-08-17T15:35:33.932Z,25.28
2022-08-17T15:38:12.169Z,25.10
2022-08-17T15:40:44.595Z,25.05
2022-08-17T15:43:16.452Z,24.34
2022-08-17T15:45:56.786Z,24.62
2022-08-17T15:48:40.816Z,25.03
2022-08-17T15:51:12.119Z,25.02
2022-08-17T15:53:43.578Z,25.60
2022-08-17T15:56:13.675Z,25.12
2022-08-17T15:58:44.374Z,24.70
2022-08-17T16:01:18.820Z,24.95
2022-08-17T16:04:06.703Z,24.88
2022-08-17T16:06:35.742Z,24.94
2022-08-17T16:09:05.646Z,25.33
2022-08-17T16:11:33.962Z,25.15
2022-08-17T16:14:02.318Z,25.11
2022-08-17T16:16:31.313Z,25.21
2022-08-17T16:18:59.718Z,25.00
2022-08-17T16:21:30.020Z,24.94
2022-08-17T16:24:14.909Z,24.56
2022-08-17T16:26:43.773Z,24.92
2022-08-17T16:29:12.467Z,25.26
2022-08-17T16:31:41.466Z,25.24
2022-08-17T16:34:16.839Z,25.22
2022-08-17T16:36:54.689Z,25.36
2022-08-17T16:39:27.059Z,25.54
2022-08-17T16:41:56.192Z,25.35
2022-08-17T16:44:25.919Z,25.33
2022-08-17T16:46:54.507Z,24.89
2022-08-17T16:49:35.897Z,24.78
2022-08-17T16:52:10.112Z,24.73
2022-08-17T16:54:43.766Z,24.66
2022-08-17T16:57:13.200Z,24.86
2022-08-17T16:59:47.470Z,25.01
2022-08-17T17:02:17.947Z,25.43
2022-08-17T17:04:54.577Z,25.39
2022-08-17T17:08:03.220Z,24.93
2022-08-17T17:10:39.331Z,24.50
2022-08-17T17:13:14.072Z,24.36
2022-08-17T17:15:56.449Z,24.24
2022-08-17T17:18:40.581Z,24.94
2022-08-17T17:21:17.500Z,25.11
2022-08-17T17:23:56.053Z,24.75
2022-08-17T17:26:50.400Z,24.92
2022-08-17T17:29:47.220Z,24.68
2022-08-17T17:32:26.465Z,24.56
2022-08-17T17:35:02.801Z,24.83
2022-08-17T17:37:36.399Z,24.83
2022-08-17T17:40:14.717Z,25.35
2022-08-17T17:42:45.773Z,24.99
2022-08-17T17:45:21.066Z,25.00
2022-08-17T17:47:49.955Z,25.14
2022-08-17T17:50:22.493Z,25.33
2022-08-17T17:53:02.170Z,24.86
2022-08-17T17:55:48.854Z,25.03
2022-08-17T17:58:35.415Z,25.27
2022-08-17T18:01:24.001Z,25.30
2022-08-17T18:04:20.413Z,25.24
2022-08-17T18:07:13.306Z,25.17
2022-08-17T18:10:02.933Z,25.07
2022-08-17T18:12:43.105Z,25.05
2022-08-17T18:15:37.125Z,25.06
2022-08-17T18:18:37.902Z,25.06
2022-08-17T18:21:15.848Z,25.04
2022-08-17T18:23:56.476Z,25.03
2022-08-17T18:26:48.334Z,25.00
2022-08-17T18:29:35.896Z,24.88
2022-08-17T18:32:37.106Z,24.93
2022-08-17T18:35:51.500Z,24.94
2022-08-17T18:38:33.693Z,24.67
2022-08-17T18:41:21.158Z,24.84
2022-08-17T18:44:03.231Z,24.85
2022-08-17T18:46:36.599Z,24.66
2022-08-17T18:49:26.282Z,24.57
2022-08-17T18:52:23.228Z,24.65
2022-08-17T18:55:05.648Z,24.67
2022-08-17T18:57:37.885Z,24.66
2022-08-17T19:00:14.254Z,24.66
2022-08-17T19:02:55.762Z,24.63
2022-08-17T19:05:35.404Z,24.56
2022-08-17T19:08:36.021Z,24.49
2022-08-17T19:11:08.475Z,24.54
2022-08-17T19:13:42.137Z,24.33
2022-08-17T19:16:18.109Z,24.33
2022-08-17T19:18:53.481Z,24.11
2022-08-17T19:21:27.998Z,24.07
2022-08-17T19:24:04.558Z,23.61
2022-08-17T19:26:54.549Z,23.98
2022-08-17T19:29:34.369Z,23.74
2022-08-17T19:32:03.511Z,23.72
2022-08-17T19:34:35.605Z,23.84
2022-08-17T19:37:20.986Z,23.99
2022-08-17T19:40:03.974Z,24.20
2022-08-17T19:42:47.506Z,24.06
2022-08-17T19:45:29.775Z,24.12
2022-08-17T19:48:13.539Z,24.32
2022-08-17T19:50:50.903Z,24.33
2022-08-17T19:54:01.501Z,24.30
2022-08-17T19:56:31.708Z,23.72
2022-08-17T19:59:10.343Z,23.78
2022-08-17T20:01:48.622Z,23.62
2022-08-17T20:04:31.986Z,23.56
2022-08-17T20:07:07.343Z,23.91
2022-08-17T20:09:41.204Z,23.78
2022-08-17T20:12:14.479Z,24.09
2022-08-17T20:14:53.388Z,24.29
2022-08-17T20:17:28.609Z,24.39
2022-08-17T20:20:08.217Z,24.40
2022-08-17T20:22:55.157Z,24.52
2022-08-17T20:25:34.498Z,24.08
2022-08-17T20:28:16.466Z,24.44
2022-08-17T20:30:48.970Z,24.49
2022-08-17T20:33:27.722Z,24.59
2022-08-17T20:36:18.651Z,24.63
2022-08-17T20:38:50.596Z,24.30
2022-08-17T20:41:22.942Z,24.51
2022-08-17T20:44:07.473Z,24.58
2022-08-17T20:46:57.901Z,24.56
2022-08-17T20:49:38.841Z,24.34
2022-08-17T20:52:09.164Z,24.29
2022-08-17T20:54:49.856Z,24.49
2022-08-17T20:57:49.072Z,24.40
2022-08-17T21:00:46.970Z,24.49
2022-08-17T21:03:57.455Z,24.55
2022-08-17T21:06:26.568Z,24.51
2022-08-17T21:09:01.567Z,24.55
2022-08-17T21:12:05.061Z,24.43
2022-08-17T21:15:01.085Z,24.28
2022-08-17T21:17:48.368Z,24.40
2022-08-17T21:20:35.721Z,24.13
2022-08-17T21:23:34.181Z,24.37
2022-08-17T21:26:17.452Z,24.33
2022-08-17T21:29:17.891Z,24.47
2022-08-17T21:32:24.170Z,24.51
2022-08-17T21:35:28.487Z,24.54
2022-08-17T21:38:05.081Z,24.65
2022-08-17T21:40:36.324Z,24.46
2022-08-17T21:43:23.645Z,24.41
2022-08-17T21:46:03.451Z,23.66
2022-08-17T21:48:44.377Z,24.15
2022-08-17T21:51:19.085Z,24.31
2022-08-17T21:53:52.045Z,24.45
2022-08-17T21:56:30.562Z,24.51
2022-08-17T21:59:02.860Z,24.50
2022-08-17T22:01:34.931Z,24.49
2022-08-17T22:04:18.920Z,24.13
2022-08-17T22:06:56.922Z,23.86
2022-08-17T22:09:31.597Z,23.85
2022-08-17T22:12:07.109Z,23.80
2022-08-17T22:14:53.297Z,23.28
2022-08-17T22:17:25.181Z,23.85
2022-08-17T22:19:59.916Z,23.53
2022-08-17T22:22:56.534Z,23.46
2022-08-17T22:25:27.020Z,23.61
2022-08-17T22:28:00.177Z,23.56
2022-08-17T22:30:34.221Z,23.32
2022-08-17T22:33:19.171Z,23.48
2022-08-17T22:35:49.462Z,23.90
2022-08-17T22:38:32.620Z,24.12
2022-08-17T22:41:42.361Z,24.16
2022-08-17T22:44:27.133Z,24.24
2022-08-17T22:47:03.006Z,24.30
2022-08-17T22:49:38.595Z,24.31
2022-08-17T22:52:35.322Z,24.29
2022-08-17T22:55:32.533Z,23.96
2022-08-17T22:58:19.413Z,24.00
2022-08-17T23:00:51.114Z,23.83
2022-08-17T23:03:22.495Z,22.98
2022-08-17T23:06:06.850Z,22.62
2022-08-17T23:08:43.913Z,23.20
2022-08-17T23:11:12.251Z,23.64
2022-08-17T23:13:40.587Z,23.83
2022-08-17T23:16:08.927Z,23.96
2022-08-17T23:18:37.492Z,24.04
2022-08-17T23:21:07.762Z,24.07
2022-08-17T23:23:38.051Z,24.11
2022-08-17T23:26:11.368Z,24.17
2022-08-17T23:28:41.081Z,24.15
2022-08-17T23:31:09.830Z,24.06
2022-08-17T23:33:40.884Z,24.03
2022-08-17T23:36:15.366Z,24.09
2022-08-17T23:38:46.689Z,23.89
2022-08-17T23:41:19.461Z,23.69
2022-08-17T23:43:52.826Z,23.65
2022-08-17T23:46:22.438Z,23.78
2022-08-17T23:48:54.215Z,23.88
2022-08-17T23:51:27.670Z,23.15
2022-08-17T23:54:07.977Z,23.32
2022-08-17T23:56:42.090Z,23.01
2022-08-17T23:59:10.389Z,23.32
